Spirit Of Vi — CFL2070 — position and weather

sailwx.info

Track history (hours):
 
Tides and Currents Weather Stations Pressure Air Temp Water Temp Dewpoint Dewpoint Depression Visibility Wind Speed Wind Dir Waves Ship Positions

Spirit Of Vi

Last reported at 2020-Jan-28 18:00 UTC. Time now 2020-Jan-28 18:57 UTC.
Position N 48°47' W 123°21'.

Length 167 m; draft 4.8 m.

Type: Passenger vessel. MMSI: 316001269.

Date/timePositionNaut miles runAvg speedWind from/ knotsBaromVisibWave heightAir tempDewpointWater temp
2020-Jan-28 18:00N 48°47' W 123°21'6 1.6
2020-Jan-28 13:53N 48°41' W 123°25'0 0.0
2020-Jan-28 13:29N 48°41' W 123°25'0 0.0
2020-Jan-28 10:59N 48°41' W 123°25'22 3.4
2020-Jan-28 04:30N 49°00' W 123°08'1414.3
2020-Jan-28 03:31N 48°49' W 123°21'7 2.0
2020-Jan-28 00:00N 48°55' W 123°15'8 4.1
2020-Jan-27 22:00N 48°47' W 123°21'1 0.3
2020-Jan-27 18:00N 48°48' W 123°21'1514.6
2020-Jan-27 17:00N 49°00' W 123°08'0 0.1
2020-Jan-27 16:30N 49°00' W 123°08'1615.9
2020-Jan-27 15:30N 48°47' W 123°21'6 2.0
2020-Jan-27 12:30N 48°41' W 123°25'0 0.0
2020-Jan-27 11:54N 48°41' W 123°25'0 0.0
2020-Jan-27 11:30N 48°41' W 123°25'7 1.2
2020-Jan-27 06:00N 48°48' W 123°21'7 3.5
2020-Jan-27 04:00N 48°54' W 123°16'1 0.5
2020-Jan-27 01:30N 48°55' W 123°16'15 5.0
2020-Jan-26 22:31N 48°41' W 123°25'612.9
2020-Jan-26 22:00N 48°47' W 123°21'714.9
2020-Jan-26 21:30N 48°54' W 123°17'2 1.0
2020-Jan-26 20:01N 48°55' W 123°14'15 9.9
2020-Jan-26 18:30N 48°41' W 123°25'713.2
2020-Jan-26 18:01N 48°47' W 123°21'1 0.3
2020-Jan-26 15:31N 48°48' W 123°21'7 7.3
2020-Jan-26 14:30N 48°41' W 123°25'0 0.0
2020-Jan-26 13:58N 48°41' W 123°25'0 0.0
2020-Jan-26 11:55N 48°41' W 123°25'0 0.0
2020-Jan-26 11:28N 48°41' W 123°25'0 0.0
2020-Jan-26 10:58N 48°41' W 123°25'0 0.0
2020-Jan-26 09:37N 48°41' W 123°25'0 0.0
2020-Jan-26 09:13N 48°41' W 123°25'14 3.8
2020-Jan-26 05:30N 48°55' W 123°16'1 0.2
2020-Jan-26 01:30N 48°55' W 123°16'714.9
2020-Jan-26 01:00N 49°00' W 123°08'22 8.8
2020-Jan-25 22:30N 48°41' W 123°25'0 0.0
2020-Jan-25 18:30N 48°41' W 123°25'713.3
2020-Jan-25 18:00N 48°48' W 123°21'917.5
2020-Jan-25 17:30N 48°56' W 123°16'2 1.0
2020-Jan-25 16:01N 48°54' W 123°16'1413.7
2020-Jan-25 14:59N 48°41' W 123°25'0 0.0
2020-Jan-25 13:30N 48°41' W 123°25'0 0.0
2020-Jan-25 12:23N 48°41' W 123°25'0 0.0
2020-Jan-25 11:59N 48°41' W 123°25'0 0.0
2020-Jan-25 11:26N 48°41' W 123°25'0 0.0
2020-Jan-25 07:53N 48°41' W 123°25'0 0.0
2020-Jan-25 07:29N 48°41' W 123°25'8 2.0
2020-Jan-25 03:30N 48°49' W 123°21'14 5.7
2020-Jan-25 01:01N 49°00' W 123°08'0 0.1
2020-Jan-25 00:30N 49°00' W 123°08'2214.6
2020-Jan-24 23:00N 48°41' W 123°25'22 8.8
2020-Jan-24 20:30N 49°00' W 123°08'918.1
2020-Jan-24 20:00N 48°53' W 123°17'816.7
2020-Jan-24 19:30N 48°46' W 123°22'10 2.7
2020-Jan-24 16:01N 48°54' W 123°15'1414.3
2020-Jan-24 15:00N 48°41' W 123°25'0 0.0
2020-Jan-24 14:00N 48°41' W 123°25'0 0.0
2020-Jan-24 12:00N 48°41' W 123°25'0 0.0
2020-Jan-24 11:00N 48°41' W 123°25'0 0.0
2020-Jan-24 10:30N 48°41' W 123°25'0 0.0
2020-Jan-24 10:00N 48°41' W 123°25'0 0.0
2020-Jan-24 07:30N 48°41' W 123°25'0 0.0
2020-Jan-24 07:00N 48°41' W 123°25'5 1.3
2020-Jan-24 03:31N 48°46' W 123°22'4 4.5
2020-Jan-24 02:30N 48°42' W 123°24'2210.7
2020-Jan-24 00:30N 49°00' W 123°08'1716.8
2020-Jan-23 23:30N 48°46' W 123°22'2 1.6
2020-Jan-23 22:00N 48°48' W 123°21'15 2.7
2020-Jan-23 16:30N 49°00' W 123°08'1515.3
2020-Jan-23 15:30N 48°48' W 123°21'7 4.2
2020-Jan-23 13:55N 48°41' W 123°25'0 0.0
2020-Jan-23 12:13N 48°41' W 123°25'0 0.0
2020-Jan-23 10:56N 48°41' W 123°25'0 0.0
2020-Jan-23 09:59N 48°41' W 123°25'6 1.6
2020-Jan-23 06:00N 48°47' W 123°21'815.6
2020-Jan-23 05:30N 48°54' W 123°16'14 1.3
2020-Jan-22 19:00N 48°41' W 123°25'0 0.0
2020-Jan-22 15:00N 48°41' W 123°25'0 0.0
2020-Jan-22 12:59N 48°41' W 123°25'0 0.0
2020-Jan-22 10:59N 48°41' W 123°25'0 0.0
2020-Jan-22 08:59N 48°41' W 123°25'0 0.0
2020-Jan-22 08:23N 48°41' W 123°25'14 3.2
2020-Jan-22 04:01N 48°54' W 123°16'714.9
2020-Jan-22 03:31N 48°47' W 123°21'5 1.4
2020-Jan-22 00:00N 48°52' W 123°18'11 3.1
2020-Jan-21 20:30N 49°00' W 123°08'22 2.9
2020-Jan-21 13:00N 48°41' W 123°25'0 0.0
2020-Jan-21 11:27N 48°41' W 123°25'0 0.0
2020-Jan-21 10:30N 48°41' W 123°25'0 0.0
2020-Jan-21 07:30N 48°41' W 123°25'0 0.0
2020-Jan-21 07:00N 48°41' W 123°25'14 4.8
2020-Jan-21 04:00N 48°54' W 123°15'816.3
2020-Jan-21 03:30N 48°47' W 123°21'612.3
2020-Jan-21 03:00N 48°41' W 123°25'14 9.7
2020-Jan-21 01:31N 48°55' W 123°16'815.4
2020-Jan-21 01:01N 49°00' W 123°08'0 0.0
2020-Jan-20 20:59N 49°00' W 123°08'5 2.1
2020-Jan-20 18:30N 48°56' W 123°13'1711.1
2020-Jan-20 17:00N 48°41' W 123°25'0 0.0
2020-Jan-20 15:01N 48°41' W 123°25'0 0.0
2020-Jan-20 13:28N 48°41' W 123°25'0 0.0
2020-Jan-20 11:55N 48°41' W 123°25'0 0.0
2020-Jan-20 10:58N 48°41' W 123°25'0 0.0
2020-Jan-20 09:22N 48°41' W 123°25'0 0.0
2020-Jan-20 08:40N 48°41' W 123°25'0 0.0
2020-Jan-20 06:58N 48°41' W 123°25'6 5.8
2020-Jan-20 06:00N 48°46' W 123°21'815.5
2020-Jan-20 05:30N 48°54' W 123°17'917.8
2020-Jan-20 05:00N 49°00' W 123°08'15 9.7
2020-Jan-20 03:30N 48°48' W 123°21'7 7.3
2020-Jan-20 02:30N 48°41' W 123°25'1514.7
2020-Jan-20 01:31N 48°55' W 123°16'815.2
2020-Jan-20 01:00N 49°00' W 123°08'1510.1
2020-Jan-19 23:31N 48°48' W 123°21'15 6.1
2020-Jan-19 21:01N 49°00' W 123°08'2211.0
2020-Jan-19 19:00N 48°41' W 123°25'0 0.0
2020-Jan-19 18:31N 48°41' W 123°25'2210.9
2020-Jan-19 16:30N 49°00' W 123°08'22 6.0
2020-Jan-19 12:53N 48°41' W 123°25'0 0.0
2020-Jan-19 10:53N 48°41' W 123°25'0 0.0
2020-Jan-19 10:29N 48°41' W 123°25'0 0.0
2020-Jan-19 09:50N 48°41' W 123°25'0 0.0
2020-Jan-19 08:29N 48°41' W 123°25'0 0.0
2020-Jan-19 06:29N 48°41' W 123°25'2211.0
2020-Jan-19 04:30N 49°00' W 123°08'1514.6
2020-Jan-19 03:30N 48°48' W 123°21'15 5.9
2020-Jan-19 01:00N 49°00' W 123°08'0 0.4
2020-Jan-19 00:30N 49°00' W 123°08'15 6.2
2020-Jan-18 22:01N 48°47' W 123°21'917.0
2020-Jan-18 21:30N 48°55' W 123°15'7 7.2
2020-Jan-18 20:30N 49°00' W 123°08'1515.2
2020-Jan-18 19:30N 48°48' W 123°21'0 0.1
2020-Jan-18 18:00N 48°48' W 123°21'  
Track history (hours):
 
Tides and Currents Weather Stations Pressure Air Temp Water Temp Dewpoint Dewpoint Depression Visibility Wind Speed Wind Dir Waves Ship Positions

Spirit Of Vi

Last reported at 2020-Jan-28 18:00 UTC. Time now 2020-Jan-28 18:57 UTC.
Position N 48°47' W 123°21'.

Length 167 m; draft 4.8 m.

Type: Passenger vessel. MMSI: 316001269.

Date/timePositionNaut miles runAvg speedWind from/ knotsBaromVisibWave heightAir tempDewpointWater temp
2020-Jan-28 18:00N 48°47' W 123°21'6 1.6
2020-Jan-28 13:53N 48°41' W 123°25'0 0.0
2020-Jan-28 13:29N 48°41' W 123°25'0 0.0
2020-Jan-28 10:59N 48°41' W 123°25'22 3.4
2020-Jan-28 04:30N 49°00' W 123°08'1414.3
2020-Jan-28 03:31N 48°49' W 123°21'7 2.0
2020-Jan-28 00:00N 48°55' W 123°15'8 4.1
2020-Jan-27 22:00N 48°47' W 123°21'1 0.3
2020-Jan-27 18:00N 48°48' W 123°21'1514.6
2020-Jan-27 17:00N 49°00' W 123°08'0 0.1
2020-Jan-27 16:30N 49°00' W 123°08'1615.9
2020-Jan-27 15:30N 48°47' W 123°21'6 2.0
2020-Jan-27 12:30N 48°41' W 123°25'0 0.0
2020-Jan-27 11:54N 48°41' W 123°25'0 0.0
2020-Jan-27 11:30N 48°41' W 123°25'7 1.2
2020-Jan-27 06:00N 48°48' W 123°21'7 3.5
2020-Jan-27 04:00N 48°54' W 123°16'1 0.5
2020-Jan-27 01:30N 48°55' W 123°16'15 5.0
2020-Jan-26 22:31N 48°41' W 123°25'612.9
2020-Jan-26 22:00N 48°47' W 123°21'714.9
2020-Jan-26 21:30N 48°54' W 123°17'2 1.0
2020-Jan-26 20:01N 48°55' W 123°14'15 9.9
2020-Jan-26 18:30N 48°41' W 123°25'713.2
2020-Jan-26 18:01N 48°47' W 123°21'1 0.3
2020-Jan-26 15:31N 48°48' W 123°21'7 7.3
2020-Jan-26 14:30N 48°41' W 123°25'0 0.0
2020-Jan-26 13:58N 48°41' W 123°25'0 0.0
2020-Jan-26 11:55N 48°41' W 123°25'0 0.0
2020-Jan-26 11:28N 48°41' W 123°25'0 0.0
2020-Jan-26 10:58N 48°41' W 123°25'0 0.0
2020-Jan-26 09:37N 48°41' W 123°25'0 0.0
2020-Jan-26 09:13N 48°41' W 123°25'14 3.8
2020-Jan-26 05:30N 48°55' W 123°16'1 0.2
2020-Jan-26 01:30N 48°55' W 123°16'714.9
2020-Jan-26 01:00N 49°00' W 123°08'22 8.8
2020-Jan-25 22:30N 48°41' W 123°25'0 0.0
2020-Jan-25 18:30N 48°41' W 123°25'713.3
2020-Jan-25 18:00N 48°48' W 123°21'917.5
2020-Jan-25 17:30N 48°56' W 123°16'2 1.0
2020-Jan-25 16:01N 48°54' W 123°16'1413.7
2020-Jan-25 14:59N 48°41' W 123°25'0 0.0
2020-Jan-25 13:30N 48°41' W 123°25'0 0.0
2020-Jan-25 12:23N 48°41' W 123°25'0 0.0
2020-Jan-25 11:59N 48°41' W 123°25'0 0.0
2020-Jan-25 11:26N 48°41' W 123°25'0 0.0
2020-Jan-25 07:53N 48°41' W 123°25'0 0.0
2020-Jan-25 07:29N 48°41' W 123°25'8 2.0
2020-Jan-25 03:30N 48°49' W 123°21'14 5.7
2020-Jan-25 01:01N 49°00' W 123°08'0 0.1
2020-Jan-25 00:30N 49°00' W 123°08'2214.6
2020-Jan-24 23:00N 48°41' W 123°25'22 8.8
2020-Jan-24 20:30N 49°00' W 123°08'918.1
2020-Jan-24 20:00N 48°53' W 123°17'816.7
2020-Jan-24 19:30N 48°46' W 123°22'10 2.7
2020-Jan-24 16:01N 48°54' W 123°15'1414.3
2020-Jan-24 15:00N 48°41' W 123°25'0 0.0
2020-Jan-24 14:00N 48°41' W 123°25'0 0.0
2020-Jan-24 12:00N 48°41' W 123°25'0 0.0
2020-Jan-24 11:00N 48°41' W 123°25'0 0.0
2020-Jan-24 10:30N 48°41' W 123°25'0 0.0
2020-Jan-24 10:00N 48°41' W 123°25'0 0.0
2020-Jan-24 07:30N 48°41' W 123°25'0 0.0
2020-Jan-24 07:00N 48°41' W 123°25'5 1.3
2020-Jan-24 03:31N 48°46' W 123°22'4 4.5
2020-Jan-24 02:30N 48°42' W 123°24'2210.7
2020-Jan-24 00:30N 49°00' W 123°08'1716.8
2020-Jan-23 23:30N 48°46' W 123°22'2 1.6
2020-Jan-23 22:00N 48°48' W 123°21'15 2.7
2020-Jan-23 16:30N 49°00' W 123°08'1515.3
2020-Jan-23 15:30N 48°48' W 123°21'7 4.2
2020-Jan-23 13:55N 48°41' W 123°25'0 0.0
2020-Jan-23 12:13N 48°41' W 123°25'0 0.0
2020-Jan-23 10:56N 48°41' W 123°25'0 0.0
2020-Jan-23 09:59N 48°41' W 123°25'6 1.6
2020-Jan-23 06:00N 48°47' W 123°21'815.6
2020-Jan-23 05:30N 48°54' W 123°16'14 1.3
2020-Jan-22 19:00N 48°41' W 123°25'0 0.0
2020-Jan-22 15:00N 48°41' W 123°25'0 0.0
2020-Jan-22 12:59N 48°41' W 123°25'0 0.0
2020-Jan-22 10:59N 48°41' W 123°25'0 0.0
2020-Jan-22 08:59N 48°41' W 123°25'0 0.0
2020-Jan-22 08:23N 48°41' W 123°25'14 3.2
2020-Jan-22 04:01N 48°54' W 123°16'714.9
2020-Jan-22 03:31N 48°47' W 123°21'5 1.4
2020-Jan-22 00:00N 48°52' W 123°18'11 3.1
2020-Jan-21 20:30N 49°00' W 123°08'22 2.9
2020-Jan-21 13:00N 48°41' W 123°25'0 0.0
2020-Jan-21 11:27N 48°41' W 123°25'0 0.0
2020-Jan-21 10:30N 48°41' W 123°25'0 0.0
2020-Jan-21 07:30N 48°41' W 123°25'0 0.0
2020-Jan-21 07:00N 48°41' W 123°25'14 4.8
2020-Jan-21 04:00N 48°54' W 123°15'816.3
2020-Jan-21 03:30N 48°47' W 123°21'612.3
2020-Jan-21 03:00N 48°41' W 123°25'14 9.7
2020-Jan-21 01:31N 48°55' W 123°16'815.4
2020-Jan-21 01:01N 49°00' W 123°08'0 0.0
2020-Jan-20 20:59N 49°00' W 123°08'5 2.1
2020-Jan-20 18:30N 48°56' W 123°13'1711.1
2020-Jan-20 17:00N 48°41' W 123°25'0 0.0
2020-Jan-20 15:01N 48°41' W 123°25'0 0.0
2020-Jan-20 13:28N 48°41' W 123°25'0 0.0
2020-Jan-20 11:55N 48°41' W 123°25'0 0.0
2020-Jan-20 10:58N 48°41' W 123°25'0 0.0
2020-Jan-20 09:22N 48°41' W 123°25'0 0.0
2020-Jan-20 08:40N 48°41' W 123°25'0 0.0
2020-Jan-20 06:58N 48°41' W 123°25'6 5.8
2020-Jan-20 06:00N 48°46' W 123°21'815.5
2020-Jan-20 05:30N 48°54' W 123°17'917.8
2020-Jan-20 05:00N 49°00' W 123°08'15 9.7
2020-Jan-20 03:30N 48°48' W 123°21'7 7.3
2020-Jan-20 02:30N 48°41' W 123°25'1514.7
2020-Jan-20 01:31N 48°55' W 123°16'815.2
2020-Jan-20 01:00N 49°00' W 123°08'1510.1
2020-Jan-19 23:31N 48°48' W 123°21'15 6.1
2020-Jan-19 21:01N 49°00' W 123°08'2211.0
2020-Jan-19 19:00N 48°41' W 123°25'0 0.0
2020-Jan-19 18:31N 48°41' W 123°25'2210.9
2020-Jan-19 16:30N 49°00' W 123°08'22 6.0
2020-Jan-19 12:53N 48°41' W 123°25'0 0.0
2020-Jan-19 10:53N 48°41' W 123°25'0 0.0
2020-Jan-19 10:29N 48°41' W 123°25'0 0.0
2020-Jan-19 09:50N 48°41' W 123°25'0 0.0
2020-Jan-19 08:29N 48°41' W 123°25'0 0.0
2020-Jan-19 06:29N 48°41' W 123°25'2211.0
2020-Jan-19 04:30N 49°00' W 123°08'1514.6
2020-Jan-19 03:30N 48°48' W 123°21'15 5.9
2020-Jan-19 01:00N 49°00' W 123°08'0 0.4
2020-Jan-19 00:30N 49°00' W 123°08'15 6.2
2020-Jan-18 22:01N 48°47' W 123°21'917.0
2020-Jan-18 21:30N 48°55' W 123°15'7 7.2
2020-Jan-18 20:30N 49°00' W 123°08'1515.2
2020-Jan-18 19:30N 48°48' W 123°21'0 0.1
2020-Jan-18 18:00N 48°48' W 123°21'  

Dump ship's entire track history